sensor_id;sensor_type;location;lat;lon;timestamp;P1;durP1;ratioP1;P2;durP2;ratioP2
38513;SDS011;24282;48.400;10.808;2022-10-13T00:00:22;11.03;;;9.63;;
38513;SDS011;24282;48.400;10.808;2022-10-13T00:02:48;10.33;;;8.50;;
38513;SDS011;24282;48.400;10.808;2022-10-13T00:05:14;10.70;;;9.60;;
38513;SDS011;24282;48.400;10.808;2022-10-13T00:07:40;13.17;;;9.40;;
38513;SDS011;24282;48.400;10.808;2022-10-13T00:10:06;11.47;;;10.27;;
38513;SDS011;24282;48.400;10.808;2022-10-13T00:12:35;10.37;;;9.23;;
38513;SDS011;24282;48.400;10.808;2022-10-13T00:15:05;10.40;;;9.10;;
38513;SDS011;24282;48.400;10.808;2022-10-13T00:17:31;10.40;;;9.17;;
38513;SDS011;24282;48.400;10.808;2022-10-13T00:19:57;10.43;;;9.00;;
38513;SDS011;24282;48.400;10.808;2022-10-13T00:22:23;11.27;;;9.50;;
38513;SDS011;24282;48.400;10.808;2022-10-13T00:24:51;11.67;;;10.10;;
38513;SDS011;24282;48.400;10.808;2022-10-13T00:27:17;10.87;;;9.30;;
38513;SDS011;24282;48.400;10.808;2022-10-13T00:29:44;11.37;;;10.10;;
38513;SDS011;24282;48.400;10.808;2022-10-13T00:32:10;14.10;;;11.43;;
38513;SDS011;24282;48.400;10.808;2022-10-13T00:34:36;13.03;;;10.60;;
38513;SDS011;24282;48.400;10.808;2022-10-13T00:37:02;11.93;;;10.30;;
38513;SDS011;24282;48.400;10.808;2022-10-13T00:39:28;14.77;;;11.53;;
38513;SDS011;24282;48.400;10.808;2022-10-13T00:41:55;14.03;;;11.00;;
38513;SDS011;24282;48.400;10.808;2022-10-13T00:47:25;13.80;;;11.82;;
38513;SDS011;24282;48.400;10.808;2022-10-13T00:49:57;14.35;;;11.93;;
38513;SDS011;24282;48.400;10.808;2022-10-13T00:52:25;15.57;;;12.40;;
38513;SDS011;24282;48.400;10.808;2022-10-13T00:54:51;14.43;;;11.93;;
38513;SDS011;24282;48.400;10.808;2022-10-13T00:57:20;13.00;;;10.90;;
38513;SDS011;24282;48.400;10.808;2022-10-13T00:59:46;14.13;;;11.17;;
38513;SDS011;24282;48.400;10.808;2022-10-13T01:02:13;11.93;;;10.63;;
38513;SDS011;24282;48.400;10.808;2022-10-13T01:04:40;13.37;;;10.43;;
38513;SDS011;24282;48.400;10.808;2022-10-13T01:07:09;17.87;;;11.90;;
38513;SDS011;24282;48.400;10.808;2022-10-13T01:09:35;14.73;;;12.13;;
38513;SDS011;24282;48.400;10.808;2022-10-13T01:14:45;16.00;;;12.47;;
38513;SDS011;24282;48.400;10.808;2022-10-13T01:22:52;15.03;;;13.13;;
38513;SDS011;24282;48.400;10.808;2022-10-13T01:25:42;13.30;;;11.90;;
38513;SDS011;24282;48.400;10.808;2022-10-13T01:38:56;14.70;;;11.80;;
38513;SDS011;24282;48.400;10.808;2022-10-13T01:41:37;12.70;;;11.17;;
38513;SDS011;24282;48.400;10.808;2022-10-13T01:46:33;15.10;;;12.10;;
38513;SDS011;24282;48.400;10.808;2022-10-13T01:49:02;13.40;;;12.00;;
38513;SDS011;24282;48.400;10.808;2022-10-13T01:51:32;13.53;;;10.80;;
38513;SDS011;24282;48.400;10.808;2022-10-13T01:54:00;15.37;;;11.83;;
38513;SDS011;24282;48.400;10.808;2022-10-13T01:56:26;14.97;;;11.67;;
38513;SDS011;24282;48.400;10.808;2022-10-13T01:58:51;12.40;;;10.87;;
38513;SDS011;24282;48.400;10.808;2022-10-13T02:06:31;15.13;;;13.53;;
38513;SDS011;24282;48.400;10.808;2022-10-13T02:12:00;14.47;;;11.43;;
38513;SDS011;24282;48.400;10.808;2022-10-13T02:16:59;15.03;;;12.73;;
38513;SDS011;24282;48.400;10.808;2022-10-13T02:19:28;16.17;;;12.17;;
38513;SDS011;24282;48.400;10.808;2022-10-13T02:21:57;15.47;;;12.80;;
38513;SDS011;24282;48.400;10.808;2022-10-13T02:24:23;16.53;;;13.93;;
38513;SDS011;24282;48.400;10.808;2022-10-13T02:26:49;16.60;;;12.17;;
38513;SDS011;24282;48.400;10.808;2022-10-13T02:29:18;14.23;;;12.03;;
38513;SDS011;24282;48.400;10.808;2022-10-13T02:31:44;15.57;;;12.37;;
38513;SDS011;24282;48.400;10.808;2022-10-13T02:34:11;14.10;;;11.63;;
38513;SDS011;24282;48.400;10.808;2022-10-13T02:36:38;17.27;;;13.73;;
38513;SDS011;24282;48.400;10.808;2022-10-13T02:39:05;15.87;;;12.60;;
38513;SDS011;24282;48.400;10.808;2022-10-13T02:41:32;16.77;;;13.30;;
38513;SDS011;24282;48.400;10.808;2022-10-13T02:43:58;17.63;;;13.43;;
38513;SDS011;24282;48.400;10.808;2022-10-13T02:46:31;14.30;;;11.93;;
38513;SDS011;24282;48.400;10.808;2022-10-13T02:48:57;15.63;;;13.30;;
38513;SDS011;24282;48.400;10.808;2022-10-13T02:51:24;13.90;;;12.30;;
38513;SDS011;24282;48.400;10.808;2022-10-13T02:53:50;15.63;;;13.07;;
38513;SDS011;24282;48.400;10.808;2022-10-13T02:56:15;15.00;;;12.33;;
38513;SDS011;24282;48.400;10.808;2022-10-13T02:58:41;13.13;;;11.50;;
38513;SDS011;24282;48.400;10.808;2022-10-13T03:01:11;13.60;;;12.13;;
38513;SDS011;24282;48.400;10.808;2022-10-13T03:03:38;13.67;;;11.83;;
38513;SDS011;24282;48.400;10.808;2022-10-13T03:06:04;14.17;;;11.90;;
38513;SDS011;24282;48.400;10.808;2022-10-13T03:08:31;13.47;;;12.03;;
38513;SDS011;24282;48.400;10.808;2022-10-13T03:10:58;14.33;;;12.27;;
38513;SDS011;24282;48.400;10.808;2022-10-13T03:13:24;16.33;;;12.50;;
38513;SDS011;24282;48.400;10.808;2022-10-13T03:15:50;14.30;;;12.80;;
38513;SDS011;24282;48.400;10.808;2022-10-13T03:18:16;14.20;;;12.30;;
38513;SDS011;24282;48.400;10.808;2022-10-13T03:20:42;12.70;;;10.87;;
38513;SDS011;24282;48.400;10.808;2022-10-13T03:23:07;14.27;;;11.40;;
38513;SDS011;24282;48.400;10.808;2022-10-13T03:25:33;14.37;;;12.83;;
38513;SDS011;24282;48.400;10.808;2022-10-13T03:28:00;15.77;;;12.83;;
38513;SDS011;24282;48.400;10.808;2022-10-13T03:30:25;13.27;;;11.60;;
38513;SDS011;24282;48.400;10.808;2022-10-13T03:32:52;14.07;;;12.57;;
38513;SDS011;24282;48.400;10.808;2022-10-13T03:35:17;14.13;;;12.53;;
38513;SDS011;24282;48.400;10.808;2022-10-13T03:37:43;13.30;;;11.67;;
38513;SDS011;24282;48.400;10.808;2022-10-13T03:40:09;13.70;;;12.20;;
38513;SDS011;24282;48.400;10.808;2022-10-13T03:42:35;14.03;;;12.53;;
38513;SDS011;24282;48.400;10.808;2022-10-13T03:45:02;12.70;;;11.33;;
38513;SDS011;24282;48.400;10.808;2022-10-13T03:47:34;13.97;;;12.07;;
38513;SDS011;24282;48.400;10.808;2022-10-13T03:50:00;13.50;;;11.67;;
38513;SDS011;24282;48.400;10.808;2022-10-13T03:52:27;13.73;;;12.23;;
38513;SDS011;24282;48.400;10.808;2022-10-13T03:54:54;13.10;;;11.67;;
38513;SDS011;24282;48.400;10.808;2022-10-13T03:57:19;14.10;;;12.07;;
38513;SDS011;24282;48.400;10.808;2022-10-13T03:59:45;13.13;;;11.73;;
38513;SDS011;24282;48.400;10.808;2022-10-13T04:02:11;14.87;;;12.60;;
38513;SDS011;24282;48.400;10.808;2022-10-13T04:04:37;13.30;;;11.90;;
38513;SDS011;24282;48.400;10.808;2022-10-13T04:07:03;12.83;;;11.53;;
38513;SDS011;24282;48.400;10.808;2022-10-13T04:09:29;12.47;;;11.20;;
38513;SDS011;24282;48.400;10.808;2022-10-13T04:11:55;12.47;;;11.17;;
38513;SDS011;24282;48.400;10.808;2022-10-13T04:14:20;14.20;;;12.10;;
38513;SDS011;24282;48.400;10.808;2022-10-13T04:16:46;13.20;;;11.67;;
38513;SDS011;24282;48.400;10.808;2022-10-13T04:19:13;15.07;;;12.23;;
38513;SDS011;24282;48.400;10.808;2022-10-13T04:21:39;15.03;;;12.50;;
38513;SDS011;24282;48.400;10.808;2022-10-13T04:24:05;13.53;;;12.13;;
38513;SDS011;24282;48.400;10.808;2022-10-13T04:26:33;13.10;;;11.17;;
38513;SDS011;24282;48.400;10.808;2022-10-13T04:29:05;12.57;;;11.07;;
38513;SDS011;24282;48.400;10.808;2022-10-13T04:31:32;13.13;;;11.73;;
38513;SDS011;24282;48.400;10.808;2022-10-13T04:33:59;13.10;;;11.27;;
38513;SDS011;24282;48.400;10.808;2022-10-13T04:36:25;14.63;;;13.13;;
38513;SDS011;24282;48.400;10.808;2022-10-13T04:38:51;13.33;;;11.93;;
38513;SDS011;24282;48.400;10.808;2022-10-13T04:41:18;13.37;;;11.97;;
38513;SDS011;24282;48.400;10.808;2022-10-13T04:43:48;12.87;;;10.73;;
38513;SDS011;24282;48.400;10.808;2022-10-13T04:46:16;13.13;;;11.73;;
38513;SDS011;24282;48.400;10.808;2022-10-13T04:48:52;11.27;;;10.07;;
38513;SDS011;24282;48.400;10.808;2022-10-13T04:51:20;13.80;;;11.63;;
38513;SDS011;24282;48.400;10.808;2022-10-13T04:53:48;13.43;;;11.73;;
38513;SDS011;24282;48.400;10.808;2022-10-13T04:56:18;12.93;;;11.33;;
38513;SDS011;24282;48.400;10.808;2022-10-13T04:58:44;12.90;;;11.23;;
38513;SDS011;24282;48.400;10.808;2022-10-13T05:01:11;13.50;;;11.50;;
38513;SDS011;24282;48.400;10.808;2022-10-13T05:03:42;11.60;;;10.40;;
38513;SDS011;24282;48.400;10.808;2022-10-13T05:06:15;13.43;;;12.03;;
38513;SDS011;24282;48.400;10.808;2022-10-13T05:08:46;12.30;;;10.87;;
38513;SDS011;24282;48.400;10.808;2022-10-13T05:11:14;11.73;;;10.53;;
38513;SDS011;24282;48.400;10.808;2022-10-13T05:13:41;13.57;;;11.30;;
38513;SDS011;24282;48.400;10.808;2022-10-13T05:16:10;13.53;;;11.47;;
38513;SDS011;24282;48.400;10.808;2022-10-13T05:18:37;12.37;;;11.07;;
38513;SDS011;24282;48.400;10.808;2022-10-13T05:21:10;14.63;;;11.33;;
38513;SDS011;24282;48.400;10.808;2022-10-13T05:23:38;13.43;;;12.00;;
38513;SDS011;24282;48.400;10.808;2022-10-13T05:26:06;12.63;;;11.27;;
38513;SDS011;24282;48.400;10.808;2022-10-13T05:28:33;13.60;;;11.40;;
38513;SDS011;24282;48.400;10.808;2022-10-13T05:31:12;13.57;;;12.13;;
38513;SDS011;24282;48.400;10.808;2022-10-13T05:33:43;12.87;;;11.53;;
38513;SDS011;24282;48.400;10.808;2022-10-13T05:36:10;12.40;;;11.07;;
38513;SDS011;24282;48.400;10.808;2022-10-13T05:38:37;12.03;;;10.83;;
38513;SDS011;24282;48.400;10.808;2022-10-13T05:41:04;12.00;;;10.67;;
38513;SDS011;24282;48.400;10.808;2022-10-13T05:43:32;13.80;;;11.90;;
38513;SDS011;24282;48.400;10.808;2022-10-13T05:45:58;15.80;;;11.00;;
38513;SDS011;24282;48.400;10.808;2022-10-13T05:48:27;11.83;;;10.60;;
38513;SDS011;24282;48.400;10.808;2022-10-13T05:50:53;12.83;;;11.23;;
38513;SDS011;24282;48.400;10.808;2022-10-13T05:53:21;12.57;;;11.10;;
38513;SDS011;24282;48.400;10.808;2022-10-13T05:55:49;11.70;;;10.47;;
38513;SDS011;24282;48.400;10.808;2022-10-13T05:58:16;13.53;;;11.57;;
38513;SDS011;24282;48.400;10.808;2022-10-13T06:00:42;16.70;;;12.47;;
38513;SDS011;24282;48.400;10.808;2022-10-13T06:03:10;15.53;;;13.50;;
38513;SDS011;24282;48.400;10.808;2022-10-13T06:05:42;14.73;;;13.18;;
38513;SDS011;24282;48.400;10.808;2022-10-13T06:08:12;15.90;;;14.10;;
38513;SDS011;24282;48.400;10.808;2022-10-13T06:10:38;16.50;;;14.80;;
38513;SDS011;24282;48.400;10.808;2022-10-13T06:13:06;16.60;;;14.90;;
38513;SDS011;24282;48.400;10.808;2022-10-13T06:15:31;16.80;;;14.57;;
38513;SDS011;24282;48.400;10.808;2022-10-13T06:17:57;15.03;;;13.40;;
38513;SDS011;24282;48.400;10.808;2022-10-13T06:20:23;15.53;;;13.80;;
38513;SDS011;24282;48.400;10.808;2022-10-13T06:22:50;14.63;;;13.13;;
38513;SDS011;24282;48.400;10.808;2022-10-13T06:25:17;14.87;;;13.30;;
38513;SDS011;24282;48.400;10.808;2022-10-13T06:27:43;15.10;;;12.37;;
38513;SDS011;24282;48.400;10.808;2022-10-13T06:30:09;14.03;;;12.50;;
38513;SDS011;24282;48.400;10.808;2022-10-13T06:32:35;12.10;;;10.83;;
38513;SDS011;24282;48.400;10.808;2022-10-13T06:35:01;14.30;;;12.73;;
38513;SDS011;24282;48.400;10.808;2022-10-13T06:37:27;14.13;;;12.40;;
38513;SDS011;24282;48.400;10.808;2022-10-13T06:39:53;13.53;;;12.13;;
38513;SDS011;24282;48.400;10.808;2022-10-13T06:42:18;14.97;;;13.07;;
38513;SDS011;24282;48.400;10.808;2022-10-13T06:44:45;12.90;;;11.37;;
38513;SDS011;24282;48.400;10.808;2022-10-13T06:47:11;13.03;;;11.70;;
38513;SDS011;24282;48.400;10.808;2022-10-13T06:49:37;13.67;;;11.30;;
38513;SDS011;24282;48.400;10.808;2022-10-13T06:52:03;16.03;;;12.97;;
38513;SDS011;24282;48.400;10.808;2022-10-13T06:54:29;13.80;;;11.43;;
38513;SDS011;24282;48.400;10.808;2022-10-13T06:56:54;15.30;;;11.40;;
38513;SDS011;24282;48.400;10.808;2022-10-13T06:59:20;12.07;;;10.70;;
38513;SDS011;24282;48.400;10.808;2022-10-13T07:01:46;13.73;;;11.60;;
38513;SDS011;24282;48.400;10.808;2022-10-13T07:04:14;13.23;;;10.60;;
38513;SDS011;24282;48.400;10.808;2022-10-13T07:06:40;12.93;;;10.57;;
38513;SDS011;24282;48.400;10.808;2022-10-13T07:09:06;13.10;;;10.83;;
38513;SDS011;24282;48.400;10.808;2022-10-13T07:11:33;12.70;;;10.57;;
38513;SDS011;24282;48.400;10.808;2022-10-13T07:13:59;16.57;;;10.87;;
38513;SDS011;24282;48.400;10.808;2022-10-13T07:16:25;12.83;;;11.43;;
38513;SDS011;24282;48.400;10.808;2022-10-13T07:18:51;16.17;;;13.10;;
38513;SDS011;24282;48.400;10.808;2022-10-13T07:21:17;14.83;;;13.03;;
38513;SDS011;24282;48.400;10.808;2022-10-13T07:23:43;15.27;;;12.87;;
38513;SDS011;24282;48.400;10.808;2022-10-13T07:26:09;15.23;;;13.63;;
38513;SDS011;24282;48.400;10.808;2022-10-13T07:28:37;14.30;;;12.73;;
38513;SDS011;24282;48.400;10.808;2022-10-13T07:31:11;13.57;;;12.10;;
38513;SDS011;24282;48.400;10.808;2022-10-13T07:33:42;14.67;;;12.80;;
38513;SDS011;24282;48.400;10.808;2022-10-13T07:36:10;16.40;;;13.50;;
38513;SDS011;24282;48.400;10.808;2022-10-13T07:38:36;12.83;;;11.07;;
38513;SDS011;24282;48.400;10.808;2022-10-13T07:41:03;15.83;;;12.77;;
38513;SDS011;24282;48.400;10.808;2022-10-13T07:43:30;14.07;;;12.30;;
38513;SDS011;24282;48.400;10.808;2022-10-13T07:45:58;14.73;;;12.03;;
38513;SDS011;24282;48.400;10.808;2022-10-13T07:48:26;14.73;;;11.90;;
38513;SDS011;24282;48.400;10.808;2022-10-13T07:50:53;15.87;;;12.90;;
38513;SDS011;24282;48.400;10.808;2022-10-13T07:53:18;13.83;;;11.57;;
38513;SDS011;24282;48.400;10.808;2022-10-13T07:55:44;13.63;;;11.97;;
38513;SDS011;24282;48.400;10.808;2022-10-13T07:58:10;14.23;;;11.97;;
38513;SDS011;24282;48.400;10.808;2022-10-13T08:00:36;14.10;;;12.03;;
38513;SDS011;24282;48.400;10.808;2022-10-13T08:03:01;15.57;;;12.13;;
38513;SDS011;24282;48.400;10.808;2022-10-13T08:05:27;14.93;;;12.40;;
38513;SDS011;24282;48.400;10.808;2022-10-13T08:07:53;14.77;;;12.33;;
38513;SDS011;24282;48.400;10.808;2022-10-13T08:10:19;14.30;;;12.23;;
38513;SDS011;24282;48.400;10.808;2022-10-13T08:12:45;15.43;;;12.73;;
38513;SDS011;24282;48.400;10.808;2022-10-13T08:15:11;17.43;;;14.07;;
38513;SDS011;24282;48.400;10.808;2022-10-13T08:17:37;15.27;;;12.77;;
38513;SDS011;24282;48.400;10.808;2022-10-13T08:20:03;19.87;;;15.17;;
38513;SDS011;24282;48.400;10.808;2022-10-13T08:22:31;17.53;;;13.37;;
38513;SDS011;24282;48.400;10.808;2022-10-13T08:24:59;15.63;;;13.03;;
38513;SDS011;24282;48.400;10.808;2022-10-13T08:27:26;17.80;;;14.10;;
38513;SDS011;24282;48.400;10.808;2022-10-13T08:29:52;17.57;;;14.13;;
38513;SDS011;24282;48.400;10.808;2022-10-13T08:32:19;18.93;;;14.60;;
38513;SDS011;24282;48.400;10.808;2022-10-13T08:34:46;21.53;;;15.87;;
38513;SDS011;24282;48.400;10.808;2022-10-13T08:37:13;19.10;;;13.47;;
38513;SDS011;24282;48.400;10.808;2022-10-13T08:39:40;17.40;;;14.00;;
38513;SDS011;24282;48.400;10.808;2022-10-13T08:42:17;16.10;;;14.20;;
38513;SDS011;24282;48.400;10.808;2022-10-13T08:44:50;20.17;;;15.80;;
38513;SDS011;24282;48.400;10.808;2022-10-13T08:50:25;16.95;;;14.48;;
38513;SDS011;24282;48.400;10.808;2022-10-13T08:52:56;19.27;;;13.93;;
38513;SDS011;24282;48.400;10.808;2022-10-13T08:57:59;17.13;;;13.13;;
38513;SDS011;24282;48.400;10.808;2022-10-13T09:00:30;16.38;;;12.52;;
38513;SDS011;24282;48.400;10.808;2022-10-13T09:05:42;19.63;;;15.60;;
38513;SDS011;24282;48.400;10.808;2022-10-13T09:08:20;19.10;;;15.00;;
38513;SDS011;24282;48.400;10.808;2022-10-13T09:10:49;22.33;;;15.93;;
38513;SDS011;24282;48.400;10.808;2022-10-13T09:13:20;18.48;;;15.07;;
38513;SDS011;24282;48.400;10.808;2022-10-13T09:15:47;17.75;;;14.43;;
38513;SDS011;24282;48.400;10.808;2022-10-13T09:18:16;19.38;;;14.70;;
38513;SDS011;24282;48.400;10.808;2022-10-13T09:20:42;19.88;;;15.13;;
38513;SDS011;24282;48.400;10.808;2022-10-13T09:23:18;16.95;;;13.80;;
38513;SDS011;24282;48.400;10.808;2022-10-13T09:25:49;18.88;;;14.48;;
38513;SDS011;24282;48.400;10.808;2022-10-13T09:28:21;18.75;;;15.27;;
38513;SDS011;24282;48.400;10.808;2022-10-13T09:31:00;22.30;;;15.70;;
38513;SDS011;24282;48.400;10.808;2022-10-13T09:33:32;21.75;;;15.00;;
38513;SDS011;24282;48.400;10.808;2022-10-13T09:38:26;20.15;;;13.60;;
38513;SDS011;24282;48.400;10.808;2022-10-13T09:46:03;17.02;;;13.63;;
38513;SDS011;24282;48.400;10.808;2022-10-13T09:48:47;22.77;;;14.40;;
38513;SDS011;24282;48.400;10.808;2022-10-13T09:53:56;15.45;;;11.63;;
38513;SDS011;24282;48.400;10.808;2022-10-13T10:01:45;15.70;;;11.80;;
38513;SDS011;24282;48.400;10.808;2022-10-13T10:04:25;14.82;;;10.95;;
38513;SDS011;24282;48.400;10.808;2022-10-13T10:06:58;15.43;;;10.55;;
38513;SDS011;24282;48.400;10.808;2022-10-13T10:09:29;14.38;;;11.07;;
38513;SDS011;24282;48.400;10.808;2022-10-13T10:12:02;13.20;;;9.73;;
38513;SDS011;24282;48.400;10.808;2022-10-13T10:14:32;13.25;;;9.93;;
38513;SDS011;24282;48.400;10.808;2022-10-13T10:17:20;14.53;;;10.87;;
38513;SDS011;24282;48.400;10.808;2022-10-13T10:23:28;17.98;;;9.52;;
38513;SDS011;24282;48.400;10.808;2022-10-13T10:26:09;14.70;;;9.18;;
38513;SDS011;24282;48.400;10.808;2022-10-13T10:38:04;14.55;;;9.10;;
38513;SDS011;24282;48.400;10.808;2022-10-13T10:40:23;12.05;;;8.30;;
38513;SDS011;24282;48.400;10.808;2022-10-13T10:43:21;14.65;;;8.75;;
38513;SDS011;24282;48.400;10.808;2022-10-13T10:45:50;12.73;;;8.48;;
38513;SDS011;24282;48.400;10.808;2022-10-13T10:48:22;16.00;;;9.00;;
38513;SDS011;24282;48.400;10.808;2022-10-13T10:50:51;15.82;;;9.15;;
38513;SDS011;24282;48.400;10.808;2022-10-13T10:53:28;13.55;;;8.55;;
38513;SDS011;24282;48.400;10.808;2022-10-13T11:01:27;10.30;;;7.80;;
38513;SDS011;24282;48.400;10.808;2022-10-13T11:06:41;11.70;;;8.02;;
38513;SDS011;24282;48.400;10.808;2022-10-13T11:09:08;12.57;;;9.20;;
38513;SDS011;24282;48.400;10.808;2022-10-13T11:11:37;14.48;;;7.78;;
38513;SDS011;24282;48.400;10.808;2022-10-13T11:14:45;11.02;;;8.35;;
38513;SDS011;24282;48.400;10.808;2022-10-13T11:30:08;10.98;;;7.05;;
38513;SDS011;24282;48.400;10.808;2022-10-13T11:37:33;9.90;;;8.18;;
38513;SDS011;24282;48.400;10.808;2022-10-13T11:54:05;14.35;;;7.80;;
38513;SDS011;24282;48.400;10.808;2022-10-13T11:56:50;9.70;;;6.53;;
38513;SDS011;24282;48.400;10.808;2022-10-13T11:59:33;16.20;;;8.57;;
38513;SDS011;24282;48.400;10.808;2022-10-13T12:04:34;10.10;;;7.43;;
38513;SDS011;24282;48.400;10.808;2022-10-13T12:07:05;9.10;;;6.63;;
38513;SDS011;24282;48.400;10.808;2022-10-13T12:09:33;12.05;;;6.45;;
38513;SDS011;24282;48.400;10.808;2022-10-13T12:12:15;10.27;;;6.55;;
38513;SDS011;24282;48.400;10.808;2022-10-13T12:14:43;11.35;;;7.22;;
38513;SDS011;24282;48.400;10.808;2022-10-13T12:20:01;8.35;;;6.22;;
38513;SDS011;24282;48.400;10.808;2022-10-13T12:22:29;14.63;;;7.57;;
38513;SDS011;24282;48.400;10.808;2022-10-13T12:25:04;11.85;;;6.97;;
38513;SDS011;24282;48.400;10.808;2022-10-13T12:27:37;10.25;;;6.47;;
38513;SDS011;24282;48.400;10.808;2022-10-13T12:35:19;12.02;;;6.47;;
38513;SDS011;24282;48.400;10.808;2022-10-13T12:37:48;11.85;;;7.38;;
38513;SDS011;24282;48.400;10.808;2022-10-13T12:40:15;13.30;;;7.05;;
38513;SDS011;24282;48.400;10.808;2022-10-13T12:42:42;9.15;;;6.47;;
38513;SDS011;24282;48.400;10.808;2022-10-13T12:45:18;9.25;;;6.43;;
38513;SDS011;24282;48.400;10.808;2022-10-13T12:47:47;12.65;;;7.07;;
38513;SDS011;24282;48.400;10.808;2022-10-13T12:52:55;13.35;;;7.90;;
38513;SDS011;24282;48.400;10.808;2022-10-13T12:55:30;8.75;;;6.53;;
38513;SDS011;24282;48.400;10.808;2022-10-13T12:57:56;8.82;;;6.00;;
38513;SDS011;24282;48.400;10.808;2022-10-13T13:03:00;10.90;;;7.25;;
38513;SDS011;24282;48.400;10.808;2022-10-13T13:05:31;11.50;;;7.75;;
38513;SDS011;24282;48.400;10.808;2022-10-13T13:08:00;10.65;;;6.70;;
38513;SDS011;24282;48.400;10.808;2022-10-13T13:10:28;10.27;;;7.15;;
38513;SDS011;24282;48.400;10.808;2022-10-13T13:12:54;10.50;;;6.95;;
38513;SDS011;24282;48.400;10.808;2022-10-13T13:17:49;9.73;;;6.07;;
38513;SDS011;24282;48.400;10.808;2022-10-13T13:22:55;9.48;;;6.13;;
38513;SDS011;24282;48.400;10.808;2022-10-13T13:25:21;9.68;;;6.40;;
38513;SDS011;24282;48.400;10.808;2022-10-13T13:27:47;10.32;;;6.80;;
38513;SDS011;24282;48.400;10.808;2022-10-13T13:30:16;9.88;;;6.95;;
38513;SDS011;24282;48.400;10.808;2022-10-13T13:32:43;13.50;;;7.00;;
38513;SDS011;24282;48.400;10.808;2022-10-13T13:35:09;13.10;;;6.53;;
38513;SDS011;24282;48.400;10.808;2022-10-13T13:37:39;10.73;;;6.65;;
38513;SDS011;24282;48.400;10.808;2022-10-13T13:40:15;10.95;;;6.82;;
38513;SDS011;24282;48.400;10.808;2022-10-13T13:42:43;9.10;;;5.90;;
38513;SDS011;24282;48.400;10.808;2022-10-13T13:45:12;8.15;;;5.68;;
38513;SDS011;24282;48.400;10.808;2022-10-13T13:47:39;9.95;;;6.53;;
38513;SDS011;24282;48.400;10.808;2022-10-13T13:50:09;9.45;;;6.18;;
38513;SDS011;24282;48.400;10.808;2022-10-13T13:52:58;12.60;;;7.10;;
38513;SDS011;24282;48.400;10.808;2022-10-13T13:55:24;11.05;;;7.43;;
38513;SDS011;24282;48.400;10.808;2022-10-13T13:57:51;12.15;;;6.90;;
38513;SDS011;24282;48.400;10.808;2022-10-13T14:00:16;9.88;;;6.85;;
38513;SDS011;24282;48.400;10.808;2022-10-13T14:02:52;10.98;;;6.63;;
38513;SDS011;24282;48.400;10.808;2022-10-13T14:05:18;11.10;;;6.85;;
38513;SDS011;24282;48.400;10.808;2022-10-13T14:07:44;8.50;;;5.32;;
38513;SDS011;24282;48.400;10.808;2022-10-13T14:10:10;8.45;;;5.88;;
38513;SDS011;24282;48.400;10.808;2022-10-13T14:12:36;10.60;;;6.85;;
38513;SDS011;24282;48.400;10.808;2022-10-13T14:15:02;12.50;;;6.65;;
38513;SDS011;24282;48.400;10.808;2022-10-13T14:17:29;9.93;;;5.97;;
38513;SDS011;24282;48.400;10.808;2022-10-13T14:19:54;11.02;;;6.32;;
38513;SDS011;24282;48.400;10.808;2022-10-13T14:22:20;11.27;;;6.35;;
38513;SDS011;24282;48.400;10.808;2022-10-13T14:24:46;9.82;;;6.60;;
38513;SDS011;24282;48.400;10.808;2022-10-13T14:27:12;9.40;;;5.97;;
38513;SDS011;24282;48.400;10.808;2022-10-13T14:29:38;8.18;;;5.72;;
38513;SDS011;24282;48.400;10.808;2022-10-13T14:32:04;7.97;;;5.20;;
38513;SDS011;24282;48.400;10.808;2022-10-13T14:34:29;9.02;;;4.93;;
38513;SDS011;24282;48.400;10.808;2022-10-13T14:36:57;11.20;;;6.22;;
38513;SDS011;24282;48.400;10.808;2022-10-13T14:39:23;7.40;;;4.90;;
38513;SDS011;24282;48.400;10.808;2022-10-13T14:41:48;11.88;;;6.38;;
38513;SDS011;24282;48.400;10.808;2022-10-13T14:44:14;11.73;;;6.28;;
38513;SDS011;24282;48.400;10.808;2022-10-13T14:46:43;10.48;;;7.10;;
38513;SDS011;24282;48.400;10.808;2022-10-13T14:49:09;10.80;;;6.97;;
38513;SDS011;24282;48.400;10.808;2022-10-13T14:51:37;7.05;;;6.13;;
38513;SDS011;24282;48.400;10.808;2022-10-13T14:54:03;11.32;;;6.45;;
38513;SDS011;24282;48.400;10.808;2022-10-13T14:56:30;14.48;;;6.35;;
38513;SDS011;24282;48.400;10.808;2022-10-13T14:58:57;9.82;;;6.45;;
38513;SDS011;24282;48.400;10.808;2022-10-13T15:01:34;12.10;;;7.05;;
38513;SDS011;24282;48.400;10.808;2022-10-13T15:04:00;10.95;;;6.10;;
38513;SDS011;24282;48.400;10.808;2022-10-13T15:06:29;9.05;;;5.55;;
38513;SDS011;24282;48.400;10.808;2022-10-13T15:08:56;11.23;;;7.45;;
38513;SDS011;24282;48.400;10.808;2022-10-13T15:11:22;11.55;;;6.70;;
38513;SDS011;24282;48.400;10.808;2022-10-13T15:13:49;11.02;;;6.88;;
38513;SDS011;24282;48.400;10.808;2022-10-13T15:18:47;8.95;;;5.75;;
38513;SDS011;24282;48.400;10.808;2022-10-13T15:21:13;11.75;;;7.72;;
38513;SDS011;24282;48.400;10.808;2022-10-13T15:23:40;13.18;;;8.57;;
38513;SDS011;24282;48.400;10.808;2022-10-13T15:26:06;12.60;;;9.20;;
38513;SDS011;24282;48.400;10.808;2022-10-13T15:28:38;12.80;;;8.85;;
38513;SDS011;24282;48.400;10.808;2022-10-13T15:31:08;12.52;;;8.15;;
38513;SDS011;24282;48.400;10.808;2022-10-13T15:33:34;10.98;;;7.82;;
38513;SDS011;24282;48.400;10.808;2022-10-13T15:36:00;10.27;;;7.75;;
38513;SDS011;24282;48.400;10.808;2022-10-13T15:38:26;11.55;;;7.38;;
38513;SDS011;24282;48.400;10.808;2022-10-13T15:40:52;13.95;;;7.47;;
38513;SDS011;24282;48.400;10.808;2022-10-13T15:43:23;12.95;;;7.93;;
38513;SDS011;24282;48.400;10.808;2022-10-13T15:45:54;12.40;;;8.00;;
38513;SDS011;24282;48.400;10.808;2022-10-13T15:48:23;11.63;;;7.75;;
38513;SDS011;24282;48.400;10.808;2022-10-13T15:50:49;11.57;;;9.18;;
38513;SDS011;24282;48.400;10.808;2022-10-13T15:53:15;14.20;;;9.85;;
38513;SDS011;24282;48.400;10.808;2022-10-13T15:55:40;12.60;;;9.20;;
38513;SDS011;24282;48.400;10.808;2022-10-13T15:58:06;11.27;;;8.05;;
38513;SDS011;24282;48.400;10.808;2022-10-13T16:00:32;12.93;;;8.02;;
38513;SDS011;24282;48.400;10.808;2022-10-13T16:02:58;12.15;;;8.40;;
38513;SDS011;24282;48.400;10.808;2022-10-13T16:05:24;14.23;;;8.60;;
38513;SDS011;24282;48.400;10.808;2022-10-13T16:07:49;12.95;;;7.93;;
38513;SDS011;24282;48.400;10.808;2022-10-13T16:10:15;12.20;;;8.13;;
38513;SDS011;24282;48.400;10.808;2022-10-13T16:12:41;9.63;;;6.95;;
38513;SDS011;24282;48.400;10.808;2022-10-13T16:15:08;10.20;;;7.20;;
38513;SDS011;24282;48.400;10.808;2022-10-13T16:17:35;9.18;;;6.95;;
38513;SDS011;24282;48.400;10.808;2022-10-13T16:20:02;9.70;;;7.00;;
38513;SDS011;24282;48.400;10.808;2022-10-13T16:22:28;9.07;;;6.78;;
38513;SDS011;24282;48.400;10.808;2022-10-13T16:24:54;10.23;;;7.22;;
38513;SDS011;24282;48.400;10.808;2022-10-13T16:27:19;10.27;;;7.15;;
38513;SDS011;24282;48.400;10.808;2022-10-13T16:29:46;9.65;;;7.25;;
38513;SDS011;24282;48.400;10.808;2022-10-13T16:32:11;10.23;;;6.75;;
38513;SDS011;24282;48.400;10.808;2022-10-13T16:34:37;12.25;;;7.65;;
38513;SDS011;24282;48.400;10.808;2022-10-13T16:37:03;9.40;;;7.78;;